createdAt,value
2023-04-26T00:00:27.811Z,93.33
2023-04-26T00:01:27.801Z,93.89
2023-04-26T00:02:28.016Z,93.37
2023-04-26T00:03:27.936Z,93.64
2023-04-26T00:04:27.932Z,93.16
2023-04-26T00:05:27.788Z,93.79
2023-04-26T00:06:27.785Z,93.79
2023-04-26T00:07:28.885Z,93.41
2023-04-26T00:08:27.755Z,95.08
2023-04-26T00:09:27.745Z,95.39
2023-04-26T00:10:27.750Z,95.33
2023-04-26T00:11:27.772Z,95.85
2023-04-26T00:12:27.768Z,95.91
2023-04-26T00:13:27.724Z,95.29
2023-04-26T00:14:27.706Z,95.75
2023-04-26T00:15:27.720Z,96.11
2023-04-26T00:16:27.756Z,97.04
2023-04-26T00:17:27.692Z,97.88
2023-04-26T00:18:27.698Z,97.77
2023-04-26T00:19:27.687Z,97.35
2023-04-26T00:20:27.687Z,96.98
2023-04-26T00:21:27.672Z,98.13
2023-04-26T00:22:27.655Z,97.92
2023-04-26T00:23:27.664Z,97.92
2023-04-26T00:24:27.648Z,98.29
2023-04-26T00:25:27.642Z,97.71
2023-04-26T00:26:27.662Z,97.98
2023-04-26T00:27:27.637Z,97.67
2023-04-26T00:28:27.694Z,97.35
2023-04-26T00:29:27.634Z,96.98
2023-04-26T00:30:27.642Z,95.98
2023-04-26T00:31:27.646Z,97.86
2023-04-26T00:32:27.647Z,97.86
2023-04-26T00:33:27.619Z,98.59
2023-04-26T00:34:27.598Z,97.70
2023-04-26T00:35:27.670Z,98.38
2023-04-26T00:36:27.623Z,98.69
2023-04-26T00:37:27.577Z,98.59
2023-04-26T00:38:27.584Z,98.34
2023-04-26T00:39:27.617Z,98.07
2023-04-26T00:40:27.564Z,98.59
2023-04-26T00:41:27.643Z,98.80
2023-04-26T00:42:27.621Z,99.07
2023-04-26T00:43:27.585Z,98.07
2023-04-26T00:44:27.536Z,97.75
2023-04-26T00:45:27.707Z,98.65
2023-04-26T00:46:27.554Z,98.44
2023-04-26T00:47:27.632Z,97.81
2023-04-26T00:48:27.607Z,97.34
2023-04-26T00:49:27.724Z,98.34
2023-04-26T00:50:27.568Z,98.55
2023-04-26T00:51:27.590Z,98.55
2023-04-26T00:52:27.486Z,97.75
2023-04-26T00:53:28.766Z,97.50
2023-04-26T00:54:27.469Z,97.92
2023-04-26T00:55:27.482Z,97.46
2023-04-26T00:56:27.458Z,96.42
2023-04-26T00:57:27.448Z,97.03
2023-04-26T00:58:27.462Z,97.30
2023-04-26T00:59:27.501Z,97.67
2023-04-26T01:00:27.419Z,95.75
2023-04-26T01:01:27.475Z,93.71
2023-04-26T01:02:27.570Z,95.68
2023-04-26T01:03:27.601Z,95.79
2023-04-26T01:04:27.598Z,94.64
2023-04-26T01:05:27.392Z,95.79
2023-04-26T01:06:27.382Z,95.73
2023-04-26T01:07:27.393Z,96.46
2023-04-26T01:08:27.406Z,96.52
2023-04-26T01:09:27.371Z,95.83
2023-04-26T01:10:27.363Z,96.25
2023-04-26T01:11:27.354Z,96.04
2023-04-26T01:12:27.346Z,96.25
2023-04-26T01:13:27.353Z,96.82
2023-04-26T01:14:27.330Z,97.44
2023-04-26T01:15:27.323Z,97.34
2023-04-26T01:16:27.379Z,97.44
2023-04-26T01:17:27.373Z,97.07
2023-04-26T01:18:27.357Z,97.86
2023-04-26T01:19:27.292Z,96.50
2023-04-26T01:20:27.298Z,97.97
2023-04-26T01:21:27.284Z,98.28
2023-04-26T01:22:27.284Z,98.38
2023-04-26T01:23:27.291Z,97.50
2023-04-26T01:24:27.357Z,97.03
2023-04-26T01:25:27.268Z,97.50
2023-04-26T01:26:27.246Z,96.52
2023-04-26T01:27:27.240Z,95.83
2023-04-26T01:28:27.264Z,95.79
2023-04-26T01:29:27.222Z,94.81
2023-04-26T01:30:27.242Z,94.27
2023-04-26T01:31:27.268Z,95.17
2023-04-26T01:32:28.290Z,94.58
2023-04-26T01:33:27.278Z,95.46
2023-04-26T01:34:27.201Z,95.67
2023-04-26T01:35:27.214Z,96.40
2023-04-26T01:36:27.178Z,97.80
2023-04-26T01:37:27.208Z,98.59
2023-04-26T01:38:27.179Z,98.18
2023-04-26T01:39:27.161Z,97.91
2023-04-26T01:40:27.144Z,98.90
2023-04-26T01:41:27.156Z,98.11
2023-04-26T01:42:27.130Z,98.22
2023-04-26T01:43:27.296Z,97.34
2023-04-26T01:44:27.134Z,97.80
2023-04-26T01:45:27.128Z,97.80
2023-04-26T01:46:27.196Z,98.68
2023-04-26T01:47:27.177Z,98.74
2023-04-26T01:48:27.117Z,98.53
2023-04-26T01:49:27.086Z,98.22
2023-04-26T01:50:27.089Z,98.22
2023-04-26T01:51:27.105Z,97.85
2023-04-26T01:52:27.073Z,97.78
2023-04-26T01:53:27.063Z,98.04
2023-04-26T01:54:27.093Z,99.99
2023-04-26T01:55:27.056Z,99.19
2023-04-26T01:56:27.076Z,99.61
2023-04-26T01:57:27.060Z,99.51
2023-04-26T01:58:27.030Z,99.99
2023-04-26T01:59:27.057Z,99.99
2023-04-26T02:00:27.008Z,99.99
2023-04-26T02:01:27.028Z,99.99
2023-04-26T02:02:27.043Z,99.99
2023-04-26T02:03:27.021Z,99.66
2023-04-26T02:04:27.249Z,99.25
2023-04-26T02:05:27.055Z,99.99
2023-04-26T02:06:26.997Z,99.98
2023-04-26T02:07:26.983Z,98.93
2023-04-26T02:08:26.969Z,99.77
2023-04-26T02:09:26.979Z,99.56
2023-04-26T02:10:26.967Z,99.35
2023-04-26T02:11:26.995Z,99.52
2023-04-26T02:12:26.950Z,99.10
2023-04-26T02:13:26.932Z,98.16
2023-04-26T02:14:26.951Z,98.58
2023-04-26T02:15:26.924Z,98.63
2023-04-26T02:16:26.981Z,98.79
2023-04-26T02:17:26.930Z,98.43
2023-04-26T02:18:26.913Z,97.38
2023-04-26T02:19:26.931Z,97.59
2023-04-26T02:20:26.902Z,95.56
2023-04-26T02:21:26.912Z,96.19
2023-04-26T02:22:26.880Z,94.64
2023-04-26T02:23:26.861Z,94.31
2023-04-26T02:24:26.890Z,96.03
2023-04-26T02:25:26.860Z,95.72
2023-04-26T02:26:26.858Z,96.34
2023-04-26T02:27:26.859Z,95.90
2023-04-26T02:28:26.840Z,97.10
2023-04-26T02:29:40.252Z,97.89
2023-04-26T02:30:28.840Z,98.21
2023-04-26T02:31:26.845Z,98.83
2023-04-26T02:32:26.875Z,98.52
2023-04-26T02:33:26.825Z,98.67
2023-04-26T02:34:26.821Z,99.40
2023-04-26T02:35:26.813Z,98.41
2023-04-26T02:36:26.808Z,97.80
2023-04-26T02:37:26.782Z,96.66
2023-04-26T02:38:26.782Z,95.56
2023-04-26T02:39:26.801Z,95.72
2023-04-26T02:40:26.794Z,96.34
2023-04-26T02:41:26.758Z,96.13
2023-04-26T02:42:26.751Z,96.66
2023-04-26T02:43:26.784Z,96.86
2023-04-26T02:44:26.757Z,95.15
2023-04-26T02:45:26.763Z,94.63
2023-04-26T02:46:26.758Z,94.63
2023-04-26T02:47:26.740Z,94.06
2023-04-26T02:48:26.718Z,94.42
2023-04-26T02:49:26.726Z,94.52
2023-04-26T02:50:26.725Z,94.52
2023-04-26T02:51:26.699Z,94.42
2023-04-26T02:52:26.692Z,95.00
2023-04-26T02:53:26.680Z,93.44
2023-04-26T02:54:26.689Z,93.90
2023-04-26T02:55:26.675Z,94.90
2023-04-26T02:56:26.695Z,93.85
2023-04-26T02:57:26.653Z,93.54
2023-04-26T02:58:26.657Z,92.91
2023-04-26T02:59:26.723Z,93.69
2023-04-26T03:00:26.639Z,95.78
2023-04-26T03:01:26.717Z,94.31
2023-04-26T03:02:26.810Z,94.10
2023-04-26T03:03:26.737Z,94.63
2023-04-26T03:04:26.630Z,96.34
2023-04-26T03:05:26.605Z,95.82
2023-04-26T03:06:26.595Z,95.82
2023-04-26T03:07:26.611Z,95.92
2023-04-26T03:08:26.608Z,95.92
2023-04-26T03:09:26.598Z,95.82
2023-04-26T03:10:26.605Z,95.82
2023-04-26T03:11:26.571Z,95.88
2023-04-26T03:12:26.573Z,94.21
2023-04-26T03:13:26.616Z,94.52
2023-04-26T03:14:26.571Z,93.81
2023-04-26T03:15:26.543Z,93.54
2023-04-26T03:16:26.583Z,94.00
2023-04-26T03:17:26.532Z,93.65
2023-04-26T03:18:26.535Z,93.75
2023-04-26T03:19:26.540Z,93.40
2023-04-26T03:20:26.510Z,93.85
2023-04-26T03:21:26.499Z,93.08
2023-04-26T03:22:26.507Z,91.58
2023-04-26T03:23:26.500Z,91.31
2023-04-26T03:24:26.509Z,91.93
2023-04-26T03:25:26.514Z,92.14
2023-04-26T03:26:26.504Z,93.12
2023-04-26T03:27:26.480Z,93.37
2023-04-26T03:28:26.462Z,94.31
2023-04-26T03:29:26.499Z,94.84
2023-04-26T03:30:26.469Z,94.42
2023-04-26T03:31:26.476Z,93.90
2023-04-26T03:32:26.462Z,94.46
2023-04-26T03:33:26.448Z,94.55
2023-04-26T03:34:26.445Z,95.70
2023-04-26T03:35:27.453Z,95.59
2023-04-26T03:36:26.416Z,96.89
2023-04-26T03:37:26.419Z,97.72
2023-04-26T03:38:26.424Z,98.10
2023-04-26T03:39:26.429Z,97.78
2023-04-26T03:40:26.389Z,97.72
2023-04-26T03:41:26.391Z,96.68
2023-04-26T03:42:26.381Z,96.47
2023-04-26T03:43:26.388Z,96.47
2023-04-26T03:44:26.372Z,97.00
2023-04-26T03:45:26.380Z,96.41
2023-04-26T03:46:26.399Z,97.77
2023-04-26T03:47:26.396Z,97.61
2023-04-26T03:48:26.336Z,97.81
2023-04-26T03:49:26.343Z,98.07
2023-04-26T03:50:26.375Z,97.75
2023-04-26T03:51:26.324Z,98.59
2023-04-26T03:52:26.329Z,98.69
2023-04-26T03:53:26.304Z,99.05
2023-04-26T03:54:26.307Z,99.90
2023-04-26T03:55:27.331Z,99.99
2023-04-26T03:56:26.287Z,99.99
2023-04-26T03:57:26.282Z,99.99
2023-04-26T03:58:26.284Z,98.61
2023-04-26T03:59:26.272Z,98.77
2023-04-26T04:00:26.305Z,97.94
2023-04-26T04:01:26.328Z,96.68
2023-04-26T04:02:26.372Z,96.78
2023-04-26T04:03:26.393Z,97.04
2023-04-26T04:04:26.399Z,97.61
2023-04-26T04:05:26.324Z,98.50
2023-04-26T04:06:26.216Z,98.39
2023-04-26T04:07:26.224Z,98.55
2023-04-26T04:08:26.245Z,98.24
2023-04-26T04:09:26.206Z,98.44
2023-04-26T04:10:26.223Z,98.55
2023-04-26T04:11:26.218Z,98.55
2023-04-26T04:12:26.190Z,98.24
2023-04-26T04:13:26.177Z,98.34
2023-04-26T04:14:26.184Z,98.75
2023-04-26T04:15:26.191Z,98.44
2023-04-26T04:16:26.239Z,98.44
2023-04-26T04:17:26.178Z,98.65
2023-04-26T04:18:26.159Z,98.55
2023-04-26T04:19:26.146Z,98.34
2023-04-26T04:20:26.158Z,97.86
2023-04-26T04:21:26.124Z,98.18
2023-04-26T04:22:26.130Z,98.74
2023-04-26T04:23:26.109Z,99.32
2023-04-26T04:24:26.115Z,98.95
2023-04-26T04:25:26.133Z,99.99
2023-04-26T04:26:26.103Z,99.99
2023-04-26T04:27:26.093Z,99.99
2023-04-26T04:28:26.085Z,99.99
2023-04-26T04:29:26.082Z,99.99
2023-04-26T04:30:26.135Z,99.99
2023-04-26T04:31:26.165Z,99.99
2023-04-26T04:32:26.076Z,99.99
2023-04-26T04:33:26.107Z,99.99
2023-04-26T04:34:26.063Z,99.99
2023-04-26T04:35:26.060Z,99.99
2023-04-26T04:36:26.044Z,99.99
2023-04-26T04:37:26.036Z,99.99
2023-04-26T04:38:26.021Z,99.99
2023-04-26T04:39:26.021Z,99.99
2023-04-26T04:40:26.033Z,99.99
2023-04-26T04:41:26.007Z,99.99
2023-04-26T04:42:25.992Z,99.99
2023-04-26T04:43:26.133Z,99.43
2023-04-26T04:44:25.985Z,99.01
2023-04-26T04:45:28.853Z,98.91
2023-04-26T04:46:26.059Z,99.43
2023-04-26T04:47:26.025Z,99.11
2023-04-26T04:48:26.297Z,99.01
2023-04-26T04:49:26.049Z,99.54
2023-04-26T04:50:26.016Z,99.59
2023-04-26T04:51:26.009Z,99.38
2023-04-26T04:52:25.947Z,99.99
2023-04-26T04:53:26.001Z,99.44
2023-04-26T04:54:25.986Z,99.55
2023-04-26T04:55:26.051Z,99.29
2023-04-26T04:56:25.937Z,99.02
2023-04-26T04:57:25.993Z,98.98
2023-04-26T04:58:25.963Z,98.88
2023-04-26T04:59:26.299Z,98.77
2023-04-26T05:00:25.948Z,98.77
2023-04-26T05:01:26.033Z,98.35
2023-04-26T05:02:26.010Z,98.14
2023-04-26T05:03:25.958Z,98.14
2023-04-26T05:04:26.115Z,98.35
2023-04-26T05:05:25.873Z,97.72
2023-04-26T05:06:25.852Z,97.83
2023-04-26T05:07:27.321Z,97.52
2023-04-26T05:08:25.953Z,97.37
2023-04-26T05:09:25.956Z,97.83
2023-04-26T05:10:25.848Z,97.83
2023-04-26T05:11:25.885Z,97.78
2023-04-26T05:12:25.830Z,97.95
2023-04-26T05:13:25.822Z,97.85
2023-04-26T05:14:25.805Z,97.53
2023-04-26T05:15:25.829Z,97.59
2023-04-26T05:16:25.856Z,97.43
2023-04-26T05:17:25.809Z,96.49
2023-04-26T05:18:25.977Z,96.66
2023-04-26T05:19:26.737Z,96.44
2023-04-26T05:20:26.887Z,96.44
2023-04-26T05:21:25.762Z,96.61
2023-04-26T05:22:25.756Z,95.73
2023-04-26T05:23:26.747Z,95.42
2023-04-26T05:24:25.785Z,95.21
2023-04-26T05:25:25.865Z,94.48
2023-04-26T05:26:25.816Z,94.52
2023-04-26T05:27:25.727Z,94.37
2023-04-26T05:28:25.757Z,95.21
2023-04-26T05:29:25.759Z,95.10
2023-04-26T05:30:25.831Z,95.94
2023-04-26T05:31:25.780Z,94.58
2023-04-26T05:32:25.715Z,94.58
2023-04-26T05:33:25.698Z,94.69
2023-04-26T05:34:25.775Z,95.17
2023-04-26T05:35:26.228Z,94.43
2023-04-26T05:36:27.939Z,94.08
2023-04-26T05:37:25.731Z,93.77
2023-04-26T05:38:25.734Z,94.08
2023-04-26T05:39:25.783Z,94.08
2023-04-26T05:40:25.684Z,94.04
2023-04-26T05:41:26.069Z,93.83
2023-04-26T05:42:25.634Z,94.04
2023-04-26T05:43:25.716Z,93.99
2023-04-26T05:44:25.664Z,93.37
2023-04-26T05:45:26.244Z,93.41
2023-04-26T05:46:25.824Z,93.62
2023-04-26T05:47:25.765Z,92.99
2023-04-26T05:48:25.656Z,94.14
2023-04-26T05:49:25.657Z,94.24
2023-04-26T05:50:25.751Z,94.04
2023-04-26T05:51:26.396Z,93.89
2023-04-26T05:52:25.880Z,93.74
2023-04-26T05:53:25.707Z,94.10
2023-04-26T05:54:25.679Z,93.68
2023-04-26T05:55:25.892Z,93.95
2023-04-26T05:56:27.754Z,93.54
2023-04-26T05:57:27.149Z,93.29
2023-04-26T05:58:25.541Z,93.39
2023-04-26T05:59:25.536Z,93.39
2023-04-26T06:00:25.608Z,93.24
2023-04-26T06:01:25.589Z,92.82
2023-04-26T06:02:25.675Z,92.82
2023-04-26T06:03:25.754Z,92.61
2023-04-26T06:04:25.635Z,92.16
2023-04-26T06:05:25.681Z,92.20
2023-04-26T06:06:25.501Z,92.68
2023-04-26T06:07:25.469Z,92.78
2023-04-26T06:08:25.505Z,92.36
2023-04-26T06:09:25.513Z,92.26
2023-04-26T06:10:25.621Z,91.80
2023-04-26T06:11:25.481Z,91.70
2023-04-26T06:12:25.448Z,90.97
2023-04-26T06:13:25.428Z,91.14
2023-04-26T06:14:30.460Z,90.56
2023-04-26T06:15:27.428Z,91.49
2023-04-26T06:16:25.505Z,91.70
2023-04-26T06:17:25.469Z,92.01
2023-04-26T06:18:25.408Z,91.60
2023-04-26T06:19:25.414Z,91.49
2023-04-26T06:20:25.407Z,91.35
2023-04-26T06:21:25.410Z,92.59
2023-04-26T06:22:25.378Z,92.69
2023-04-26T06:23:25.436Z,91.72
2023-04-26T06:24:25.374Z,90.79
2023-04-26T06:25:25.351Z,91.31
2023-04-26T06:26:25.419Z,91.41
2023-04-26T06:27:25.359Z,91.27
2023-04-26T06:28:25.351Z,89.71
2023-04-26T06:29:25.400Z,89.77
2023-04-26T06:30:25.338Z,89.56
2023-04-26T06:31:25.374Z,90.70
2023-04-26T06:32:25.343Z,90.04
2023-04-26T06:33:25.309Z,89.62
2023-04-26T06:34:26.317Z,89.94
2023-04-26T06:35:25.301Z,88.48
2023-04-26T06:36:25.310Z,88.39
2023-04-26T06:37:25.287Z,89.17
2023-04-26T06:38:25.268Z,88.96
2023-04-26T06:39:25.273Z,89.58
2023-04-26T06:40:25.275Z,87.16
2023-04-26T06:41:25.266Z,86.44
2023-04-26T06:42:25.230Z,88.09
2023-04-26T06:43:25.250Z,86.19
2023-04-26T06:44:25.224Z,85.05
2023-04-26T06:45:25.226Z,83.91
2023-04-26T06:46:25.244Z,82.95
2023-04-26T06:47:25.247Z,84.39
2023-04-26T06:48:25.217Z,84.36
2023-04-26T06:49:25.405Z,82.84
2023-04-26T06:50:25.212Z,81.95
2023-04-26T06:51:25.233Z,82.88
2023-04-26T06:52:25.169Z,82.26
2023-04-26T06:53:25.172Z,82.78
2023-04-26T06:54:25.145Z,82.67
2023-04-26T06:55:25.166Z,81.67
2023-04-26T06:56:25.200Z,80.74
2023-04-26T06:57:25.134Z,80.39
2023-04-26T06:58:25.140Z,79.66
2023-04-26T06:59:25.123Z,79.94
2023-04-26T07:00:25.128Z,78.56
2023-04-26T07:01:25.156Z,77.28
2023-04-26T07:02:25.303Z,76.77
2023-04-26T07:03:25.206Z,75.39
2023-04-26T07:04:26.199Z,73.40
2023-04-26T07:05:25.101Z,71.85
2023-04-26T07:06:25.105Z,71.82
2023-04-26T07:07:25.069Z,75.94
2023-04-26T07:08:25.069Z,75.98
2023-04-26T07:09:25.061Z,74.29
2023-04-26T07:10:25.038Z,76.25
2023-04-26T07:11:26.471Z,72.64
2023-04-26T07:12:25.028Z,72.06
2023-04-26T07:13:25.160Z,71.75
2023-04-26T07:14:25.044Z,69.68
2023-04-26T07:15:25.021Z,69.61
2023-04-26T07:16:25.073Z,70.72
2023-04-26T07:17:25.026Z,70.85
2023-04-26T07:18:25.025Z,70.51
2023-04-26T07:19:25.015Z,70.27
2023-04-26T07:20:24.988Z,69.51
2023-04-26T07:21:24.997Z,69.10
2023-04-26T07:22:24.977Z,67.55
2023-04-26T07:23:24.980Z,67.55
2023-04-26T07:24:24.957Z,68.86
2023-04-26T07:25:24.947Z,67.70
2023-04-26T07:26:25.026Z,68.11
2023-04-26T07:27:24.932Z,67.70
2023-04-26T07:28:24.925Z,68.25
2023-04-26T07:29:24.997Z,68.66
2023-04-26T07:30:24.946Z,67.33
2023-04-26T07:31:24.937Z,65.99
2023-04-26T07:32:24.941Z,66.22
2023-04-26T07:33:24.993Z,67.66
2023-04-26T07:34:24.887Z,67.63
2023-04-26T07:35:24.868Z,66.67
2023-04-26T07:36:25.231Z,66.09
2023-04-26T07:37:25.853Z,68.29
2023-04-26T07:38:24.856Z,64.43
2023-04-26T07:39:24.880Z,65.43
2023-04-26T07:40:24.853Z,66.15
2023-04-26T07:41:24.854Z,66.05
2023-04-26T07:42:24.828Z,65.71
2023-04-26T07:43:24.845Z,65.71
2023-04-26T07:44:24.828Z,62.85
2023-04-26T07:45:24.869Z,65.05
2023-04-26T07:46:24.898Z,66.01
2023-04-26T07:47:24.821Z,65.77
2023-04-26T07:48:24.799Z,65.12
2023-04-26T07:49:24.776Z,64.24
2023-04-26T07:50:24.886Z,64.11
2023-04-26T07:51:24.795Z,62.95
2023-04-26T07:52:24.768Z,62.71
2023-04-26T07:53:24.753Z,61.96
2023-04-26T07:54:24.743Z,62.24
2023-04-26T07:55:24.776Z,61.93
2023-04-26T07:56:24.766Z,61.57
2023-04-26T07:57:24.719Z,60.33
2023-04-26T07:58:24.737Z,58.59
2023-04-26T07:59:24.721Z,58.90
2023-04-26T08:00:24.751Z,58.59
2023-04-26T08:01:24.790Z,58.77
2023-04-26T08:02:36.875Z,58.28
2023-04-26T08:03:26.896Z,58.77
2023-04-26T08:04:24.752Z,58.18
2023-04-26T08:05:24.924Z,59.59
2023-04-26T08:06:24.810Z,61.77
2023-04-26T08:07:24.657Z,59.31
2023-04-26T08:08:24.648Z,55.51
2023-04-26T08:09:24.654Z,53.08
2023-04-26T08:10:24.679Z,54.13
2023-04-26T08:11:24.695Z,56.41
2023-04-26T08:12:24.630Z,55.64
2023-04-26T08:13:26.347Z,55.23
2023-04-26T08:14:24.620Z,58.65
2023-04-26T08:15:24.614Z,61.53
2023-04-26T08:16:24.632Z,59.45
2023-04-26T08:17:24.702Z,59.31
2023-04-26T08:18:24.627Z,59.19
2023-04-26T08:19:24.580Z,59.34
2023-04-26T08:20:24.561Z,59.92
2023-04-26T08:21:24.604Z,58.56
2023-04-26T08:22:24.705Z,57.31
2023-04-26T08:23:24.550Z,55.18
2023-04-26T08:24:24.532Z,55.33
2023-04-26T08:25:24.554Z,56.67
2023-04-26T08:26:24.546Z,56.13
2023-04-26T08:27:24.548Z,58.62
2023-04-26T08:28:25.534Z,58.00
2023-04-26T08:29:24.522Z,57.46
2023-04-26T08:30:24.712Z,55.49
2023-04-26T08:31:24.564Z,56.34
2023-04-26T08:32:24.545Z,57.15
2023-04-26T08:33:24.495Z,57.28
2023-04-26T08:34:24.552Z,57.26
2023-04-26T08:35:24.466Z,56.26
2023-04-26T08:36:24.473Z,56.21
2023-04-26T08:37:24.529Z,55.93
2023-04-26T08:38:24.428Z,56.95
2023-04-26T08:39:24.426Z,59.09
2023-04-26T08:40:24.410Z,59.56
2023-04-26T08:41:24.432Z,59.86
2023-04-26T08:42:24.468Z,60.49
2023-04-26T08:43:24.407Z,57.16
2023-04-26T08:44:24.419Z,56.72
2023-04-26T08:45:24.374Z,55.87
2023-04-26T08:46:24.390Z,55.36
2023-04-26T08:47:25.081Z,54.36
2023-04-26T08:48:24.364Z,53.36
2023-04-26T08:49:24.374Z,51.08
2023-04-26T08:50:24.487Z,53.62
2023-04-26T08:51:24.341Z,50.81
2023-04-26T08:52:24.369Z,47.52
2023-04-26T08:53:24.324Z,47.31
2023-04-26T08:54:24.320Z,48.43
2023-04-26T08:55:24.322Z,47.92
2023-04-26T08:56:24.306Z,47.45
2023-04-26T08:57:24.358Z,48.76
2023-04-26T08:58:24.295Z,48.42
2023-04-26T08:59:24.293Z,49.08
2023-04-26T09:00:24.280Z,49.33
2023-04-26T09:01:26.557Z,49.95
2023-04-26T09:02:25.504Z,50.38
2023-04-26T09:03:24.404Z,49.60
2023-04-26T09:04:24.649Z,52.45
2023-04-26T09:05:24.804Z,54.33
2023-04-26T09:06:24.244Z,55.66
2023-04-26T09:07:24.255Z,57.21
2023-04-26T09:08:24.239Z,55.80
2023-04-26T09:09:24.223Z,57.24
2023-04-26T09:10:24.306Z,57.65
2023-04-26T09:11:24.235Z,55.59
2023-04-26T09:12:24.224Z,55.38
2023-04-26T09:13:24.206Z,56.29
2023-04-26T09:14:25.190Z,55.95
2023-04-26T09:15:24.231Z,55.51
2023-04-26T09:16:24.268Z,55.59
2023-04-26T09:17:24.291Z,53.30
2023-04-26T09:18:24.171Z,52.38
2023-04-26T09:19:24.166Z,51.15
2023-04-26T09:20:24.155Z,54.10
2023-04-26T09:21:24.143Z,54.28
2023-04-26T09:22:24.156Z,53.97
2023-04-26T09:23:25.142Z,54.44
2023-04-26T09:24:24.205Z,53.80
2023-04-26T09:25:24.449Z,54.82
2023-04-26T09:26:24.122Z,54.38
2023-04-26T09:27:24.120Z,55.87
2023-04-26T09:28:24.107Z,55.56
2023-04-26T09:29:24.089Z,51.70
2023-04-26T09:30:24.092Z,54.69
2023-04-26T09:31:24.100Z,53.12
2023-04-26T09:32:24.078Z,56.77
2023-04-26T09:33:24.128Z,56.08
2023-04-26T09:34:24.049Z,55.54
2023-04-26T09:35:24.061Z,55.74
2023-04-26T09:36:24.042Z,55.74
2023-04-26T09:37:24.075Z,55.23
2023-04-26T09:38:24.037Z,56.21
2023-04-26T09:39:24.030Z,56.36
2023-04-26T09:40:24.036Z,58.50
2023-04-26T09:41:24.008Z,58.70
2023-04-26T09:42:24.023Z,59.59
2023-04-26T09:43:24.003Z,57.62
2023-04-26T09:44:24.011Z,57.08
2023-04-26T09:45:23.972Z,57.54
2023-04-26T09:46:24.111Z,55.30
2023-04-26T09:47:24.046Z,54.18
2023-04-26T09:48:23.958Z,50.33
2023-04-26T09:49:23.965Z,48.10
2023-04-26T09:50:23.933Z,48.19
2023-04-26T09:51:23.939Z,51.21
2023-04-26T09:52:23.956Z,52.83
2023-04-26T09:53:23.951Z,52.90
2023-04-26T09:54:23.935Z,53.39
2023-04-26T09:55:34.063Z,51.70
2023-04-26T09:56:25.894Z,50.86
2023-04-26T09:57:24.012Z,48.00
2023-04-26T09:58:23.883Z,47.29
2023-04-26T09:59:23.885Z,47.92
2023-04-26T10:00:23.883Z,47.61
2023-04-26T10:01:23.932Z,49.07
2023-04-26T10:02:23.967Z,49.71
2023-04-26T10:03:24.001Z,51.06
2023-04-26T10:04:23.924Z,52.44
2023-04-26T10:05:23.852Z,51.95
2023-04-26T10:06:23.824Z,50.74
2023-04-26T10:07:25.189Z,51.28
2023-04-26T10:08:23.824Z,51.92
2023-04-26T10:09:23.821Z,53.44
2023-04-26T10:10:23.800Z,55.72
2023-04-26T10:11:23.800Z,53.28
2023-04-26T10:12:23.814Z,54.72
2023-04-26T10:13:23.835Z,54.72
2023-04-26T10:14:23.793Z,54.00
2023-04-26T10:15:23.766Z,54.00
2023-04-26T10:16:23.794Z,53.89
2023-04-26T10:17:23.876Z,53.77
2023-04-26T10:18:23.729Z,54.28
2023-04-26T10:19:23.894Z,54.30
2023-04-26T10:20:23.903Z,55.69
2023-04-26T10:21:23.707Z,57.28
2023-04-26T10:22:23.764Z,55.74
2023-04-26T10:23:23.729Z,53.23
2023-04-26T10:24:23.690Z,52.87
2023-04-26T10:25:23.681Z,49.44
2023-04-26T10:26:23.700Z,51.04
2023-04-26T10:27:23.684Z,48.35
2023-04-26T10:28:23.679Z,48.38
2023-04-26T10:29:23.682Z,49.80
2023-04-26T10:30:23.660Z,51.07
2023-04-26T10:31:23.688Z,54.38
2023-04-26T10:32:23.641Z,53.15
2023-04-26T10:33:23.929Z,54.02
2023-04-26T10:34:23.630Z,52.95
2023-04-26T10:35:23.610Z,51.90
2023-04-26T10:36:23.614Z,51.23
2023-04-26T10:37:23.622Z,51.90
2023-04-26T10:38:23.614Z,52.90
2023-04-26T10:39:23.610Z,50.18
2023-04-26T10:40:23.604Z,48.09
2023-04-26T10:41:23.588Z,47.97
2023-04-26T10:42:24.529Z,49.79
2023-04-26T10:43:26.085Z,49.76
2023-04-26T10:44:23.563Z,49.99
2023-04-26T10:45:23.551Z,50.30
2023-04-26T10:46:23.591Z,50.59
2023-04-26T10:47:23.824Z,53.12
2023-04-26T10:48:23.555Z,52.10
2023-04-26T10:49:25.747Z,54.92
2023-04-26T10:50:23.536Z,54.92
2023-04-26T10:51:23.526Z,54.59
2023-04-26T10:52:23.530Z,54.64
2023-04-26T10:53:23.525Z,52.87
2023-04-26T10:54:23.493Z,51.10
2023-04-26T10:55:25.323Z,53.00
2023-04-26T10:56:23.504Z,53.28
2023-04-26T10:57:23.515Z,54.05
2023-04-26T10:58:23.498Z,53.80
2023-04-26T10:59:39.953Z,52.44
2023-04-26T11:00:25.664Z,52.97
2023-04-26T11:01:23.505Z,53.03
2023-04-26T11:02:23.466Z,50.88
2023-04-26T11:03:23.694Z,52.08
2023-04-26T11:04:23.536Z,50.20
2023-04-26T11:05:25.343Z,51.17
2023-04-26T11:06:24.439Z,47.69
2023-04-26T11:07:23.403Z,48.35
2023-04-26T11:08:23.438Z,50.58
2023-04-26T11:09:23.393Z,50.74
2023-04-26T11:10:23.400Z,48.76
2023-04-26T11:11:23.393Z,45.21
2023-04-26T11:12:23.372Z,45.03
2023-04-26T11:13:23.391Z,42.45
2023-04-26T11:14:23.403Z,45.21
2023-04-26T11:15:23.360Z,42.27
2023-04-26T11:16:23.411Z,42.54
2023-04-26T11:17:23.385Z,42.08
2023-04-26T11:18:23.341Z,44.81
2023-04-26T11:19:24.350Z,46.06
2023-04-26T11:20:23.327Z,47.44
2023-04-26T11:21:23.314Z,48.74
2023-04-26T11:22:23.314Z,46.35
2023-04-26T11:23:23.352Z,49.47
2023-04-26T11:24:23.298Z,49.80
2023-04-26T11:25:23.291Z,50.15
2023-04-26T11:26:23.274Z,48.54
2023-04-26T11:27:23.311Z,49.23
2023-04-26T11:28:23.360Z,49.02
2023-04-26T11:29:23.281Z,50.72
2023-04-26T11:30:23.251Z,48.98
2023-04-26T11:31:23.289Z,49.57
2023-04-26T11:32:23.250Z,49.98
2023-04-26T11:33:23.290Z,48.42
2023-04-26T11:34:23.264Z,49.44
2023-04-26T11:35:23.224Z,52.97
2023-04-26T11:36:23.216Z,55.79
2023-04-26T11:37:23.206Z,52.80
2023-04-26T11:38:23.208Z,52.59
2023-04-26T11:39:23.221Z,53.18
2023-04-26T11:40:23.214Z,53.05
2023-04-26T11:41:23.171Z,52.34
2023-04-26T11:42:23.167Z,52.11
2023-04-26T11:43:23.243Z,53.11
2023-04-26T11:44:23.157Z,51.14
2023-04-26T11:45:23.238Z,51.04
2023-04-26T11:46:23.169Z,50.73
2023-04-26T11:47:24.547Z,50.42
2023-04-26T11:48:23.202Z,50.93
2023-04-26T11:49:23.161Z,49.81
2023-04-26T11:50:23.142Z,48.17
2023-04-26T11:51:23.108Z,49.79
2023-04-26T11:52:23.097Z,50.50
2023-04-26T11:53:23.115Z,50.99
2023-04-26T11:54:23.095Z,49.35
2023-04-26T11:55:23.089Z,49.66
2023-04-26T11:56:23.100Z,48.82
2023-04-26T11:57:23.093Z,48.51
2023-04-26T11:58:23.086Z,48.59
2023-04-26T11:59:23.072Z,48.90
2023-04-26T12:00:23.067Z,46.26
2023-04-26T12:01:23.048Z,46.78
2023-04-26T12:02:23.163Z,45.57
2023-04-26T12:03:23.244Z,48.92
2023-04-26T12:04:23.132Z,47.69
2023-04-26T12:05:23.051Z,48.06
2023-04-26T12:06:23.042Z,47.34
2023-04-26T12:07:23.012Z,49.29
2023-04-26T12:08:22.991Z,47.14
2023-04-26T12:09:23.187Z,48.36
2023-04-26T12:10:22.995Z,47.16
2023-04-26T12:11:22.974Z,46.16
2023-04-26T12:12:22.972Z,48.08
2023-04-26T12:13:22.959Z,48.26
2023-04-26T12:14:22.973Z,47.34
2023-04-26T12:15:22.964Z,45.86
2023-04-26T12:16:26.802Z,46.88
2023-04-26T12:17:23.994Z,46.70
2023-04-26T12:18:22.983Z,46.80
2023-04-26T12:19:22.931Z,47.11
2023-04-26T12:20:22.914Z,46.57
2023-04-26T12:21:22.911Z,47.03
2023-04-26T12:22:22.914Z,47.45
2023-04-26T12:23:22.959Z,50.83
2023-04-26T12:24:22.893Z,49.89
2023-04-26T12:25:22.920Z,48.97
2023-04-26T12:26:22.896Z,48.00
2023-04-26T12:27:22.893Z,47.08
2023-04-26T12:28:22.871Z,47.57
2023-04-26T12:29:22.864Z,47.96
2023-04-26T12:30:22.861Z,47.86
2023-04-26T12:31:22.887Z,48.44
2023-04-26T12:32:22.961Z,47.22
2023-04-26T12:33:23.023Z,46.51
2023-04-26T12:34:22.834Z,46.53
2023-04-26T12:35:22.811Z,47.14
2023-04-26T12:36:22.810Z,48.98
2023-04-26T12:37:22.809Z,47.98
2023-04-26T12:38:22.833Z,49.41
2023-04-26T12:39:22.840Z,47.19
2023-04-26T12:40:22.778Z,46.66
2023-04-26T12:41:22.767Z,49.00
2023-04-26T12:42:22.756Z,47.29
2023-04-26T12:43:22.781Z,48.59
2023-04-26T12:44:22.934Z,48.28
2023-04-26T12:45:22.749Z,49.69
2023-04-26T12:46:22.788Z,47.94
2023-04-26T12:47:22.763Z,47.34
2023-04-26T12:48:22.744Z,47.14
2023-04-26T12:49:22.728Z,47.24
2023-04-26T12:50:22.712Z,48.06
2023-04-26T12:51:22.692Z,48.47
2023-04-26T12:52:22.696Z,49.38